Time;durP1;ratioP1;P1;durP2;ratioP2;P2;SDS_P1;SDS_P2;PMS_P1;PMS_P2;Temp;Humidity;BMP_temperature;BMP_pressure;BME280_temperature;BME280_humidity;BME280_pressure;Samples;Min_cycle;Max_cycle;Signal;HPM_P1;HPM_P2
2023/05/03 00:01:18;;;;;;;11.10;6.80;;;;;;;7.01;100.00;99475.69;4879106;29;20229;-65
2023/05/03 00:03:45;;;;;;;14.17;6.30;;;;;;;7.07;100.00;99472.69;4884501;29;20231;-65
2023/05/03 00:06:12;;;;;;;9.90;6.20;;;;;;;7.01;100.00;99471.31;4881293;29;20225;-65
2023/05/03 00:08:40;;;;;;;9.23;5.97;;;;;;;6.95;100.00;99469.16;4882645;29;20246;-65
2023/05/03 00:11:08;;;;;;;11.73;5.97;;;;;;;6.88;100.00;99468.75;4879158;29;20302;-65
2023/05/03 00:13:35;;;;;;;9.43;5.87;;;;;;;6.86;100.00;99464.63;4882561;29;20305;-65
2023/05/03 00:16:01;;;;;;;7.67;5.73;;;;;;;6.93;100.00;99468.44;4885414;29;20298;-65
2023/05/03 00:18:29;;;;;;;9.90;5.57;;;;;;;6.82;100.00;99463.19;4899235;29;20365;-66
2023/05/03 00:20:55;;;;;;;9.97;5.80;;;;;;;6.79;100.00;99461.63;4900264;29;20236;-65
2023/05/03 00:23:22;;;;;;;10.20;6.43;;;;;;;6.73;100.00;99467.22;4900321;29;20246;-65
2023/05/03 00:25:53;;;;;;;11.20;6.20;;;;;;;6.69;100.00;99465.78;4902167;29;20231;-66
2023/05/03 00:28:20;;;;;;;10.60;6.30;;;;;;;6.64;100.00;99453.13;4899584;29;20252;-66
2023/05/03 00:30:46;;;;;;;13.07;5.97;;;;;;;6.64;100.00;99455.72;4897050;29;20327;-66
2023/05/03 00:33:13;;;;;;;9.40;6.30;;;;;;;6.65;100.00;99450.41;4898213;29;20233;-66
2023/05/03 00:35:40;;;;;;;8.93;5.77;;;;;;;6.63;100.00;99449.69;4897435;29;20230;-65
2023/05/03 00:38:06;;;;;;;9.23;6.00;;;;;;;6.55;100.00;99443.38;4878944;29;20229;-65
2023/05/03 00:40:33;;;;;;;8.50;5.60;;;;;;;6.52;100.00;99444.41;4880765;29;20246;-65
2023/05/03 00:43:01;;;;;;;9.40;5.90;;;;;;;6.48;100.00;99442.94;4883771;29;20244;-65
2023/05/03 00:45:30;;;;;;;11.43;6.43;;;;;;;6.49;100.00;99453.22;4896770;29;20368;-65
2023/05/03 00:47:56;;;;;;;10.07;5.43;;;;;;;6.49;100.00;99448.06;4880139;29;20257;-65
2023/05/03 00:50:23;;;;;;;9.87;6.13;;;;;;;6.52;100.00;99441.00;4898415;29;20244;-65
2023/05/03 00:52:50;;;;;;;10.23;6.27;;;;;;;6.50;100.00;99441.94;4899690;29;20260;-65
2023/05/03 00:55:17;;;;;;;12.93;6.07;;;;;;;6.55;100.00;99448.56;4881482;29;20812;-65
2023/05/03 00:57:46;;;;;;;11.13;6.10;;;;;;;6.53;100.00;99445.25;4898593;29;20237;-65
2023/05/03 01:00:16;;;;;;;9.10;6.07;;;;;;;6.51;100.00;99440.16;4890534;29;20235;-65
2023/05/03 01:02:43;;;;;;;10.47;5.80;;;;;;;6.55;100.00;99430.41;4883372;29;20311;-65
2023/05/03 01:05:10;;;;;;;9.70;5.97;;;;;;;6.45;100.00;99435.38;4880181;29;20605;-65
2023/05/03 01:07:45;;;;;;;12.90;6.07;;;;;;;6.42;100.00;99423.47;4892515;29;20266;-65
2023/05/03 01:10:21;;;;;;;7.23;4.93;;;;;;;6.41;100.00;99432.19;4890961;29;20256;-65
2023/05/03 01:12:55;;;;;;;8.57;5.57;;;;;;;6.41;100.00;99431.34;4894233;29;20729;-65
2023/05/03 01:15:36;;;;;;;10.30;5.47;;;;;;;6.34;100.00;99420.56;4877887;29;20230;-65
2023/05/03 01:18:09;;;;;;;7.37;4.70;;;;;;;6.31;100.00;99415.59;4881938;29;20237;-65
2023/05/03 01:20:37;;;;;;;8.77;5.53;;;;;;;6.27;100.00;99412.38;4893479;29;20241;-66
2023/05/03 01:23:10;;;;;;;7.37;4.80;;;;;;;6.26;100.00;99400.34;4877631;29;20253;-66
2023/05/03 01:25:37;;;;;;;9.37;5.17;;;;;;;6.29;100.00;99407.91;4879180;29;20629;-66
2023/05/03 01:28:04;;;;;;;11.10;5.30;;;;;;;6.41;100.00;99401.06;4891409;29;20706;-66
2023/05/03 01:30:32;;;;;;;9.73;5.20;;;;;;;6.31;100.00;99394.84;4891032;29;20237;-66
2023/05/03 01:33:12;;;;;;;6.33;4.83;;;;;;;6.27;100.00;99396.81;4882630;29;20255;-66
2023/05/03 01:35:41;;;;;;;7.30;4.70;;;;;;;6.26;100.00;99397.75;4892635;29;20241;-66
2023/05/03 01:38:09;;;;;;;8.07;4.67;;;;;;;6.24;100.00;99391.84;4877075;29;20238;-66
2023/05/03 01:40:43;;;;;;;7.87;4.60;;;;;;;6.29;100.00;99392.38;4879439;29;20238;-65
2023/05/03 01:43:11;;;;;;;6.60;4.30;;;;;;;6.33;100.00;99392.97;4874666;29;20248;-65
2023/05/03 01:45:40;;;;;;;7.10;4.53;;;;;;;6.35;100.00;99397.13;4879464;29;20241;-65
2023/05/03 01:48:11;;;;;;;6.23;4.50;;;;;;;6.34;100.00;99394.63;4878617;29;20298;-65
2023/05/03 01:50:37;;;;;;;8.97;5.37;;;;;;;6.34;100.00;99392.03;4861366;29;20328;-65
2023/05/03 01:53:04;;;;;;;7.83;5.00;;;;;;;6.28;100.00;99390.72;4877110;29;20250;-65
2023/05/03 01:55:31;;;;;;;8.77;5.10;;;;;;;6.29;100.00;99388.91;4879979;29;20263;-65
2023/05/03 01:57:58;;;;;;;10.13;4.97;;;;;;;6.35;100.00;99388.50;4880348;29;20734;-65
2023/05/03 02:00:26;;;;;;;6.83;4.20;;;;;;;6.27;100.00;99388.19;4876359;29;20312;-65
2023/05/03 02:02:55;;;;;;;8.37;4.47;;;;;;;6.28;100.00;99389.84;4882119;29;20251;-65
2023/05/03 02:05:22;;;;;;;6.77;3.97;;;;;;;6.37;100.00;99375.41;4893300;29;20228;-65
2023/05/03 02:07:49;;;;;;;6.50;4.00;;;;;;;6.38;100.00;99377.94;4882362;29;20287;-65
2023/05/03 02:10:16;;;;;;;8.97;4.37;;;;;;;6.40;100.00;99373.47;4892456;29;20228;-65
2023/05/03 02:12:42;;;;;;;6.97;4.17;;;;;;;6.31;100.00;99374.94;4878550;29;20249;-65
2023/05/03 02:15:12;;;;;;;6.53;4.20;;;;;;;6.34;100.00;99379.91;4880138;29;20690;-65
2023/05/03 02:17:39;;;;;;;6.93;3.97;;;;;;;6.36;100.00;99377.19;4897195;29;20239;-65
2023/05/03 02:20:08;;;;;;;6.67;4.53;;;;;;;6.54;100.00;99388.06;4892263;29;20720;-65
2023/05/03 02:22:35;;;;;;;9.00;4.10;;;;;;;6.56;100.00;99387.97;4895807;29;20240;-65
2023/05/03 02:25:02;;;;;;;7.70;4.90;;;;;;;6.78;100.00;99389.88;4877002;29;20724;-65
2023/05/03 02:27:28;;;;;;;8.73;5.47;;;;;;;6.83;100.00;99380.03;4894629;29;20245;-65
2023/05/03 02:29:55;;;;;;;10.77;4.07;;;;;;;6.90;100.00;99378.66;4893622;29;20294;-65
2023/05/03 02:32:24;;;;;;;10.97;4.80;;;;;;;7.07;100.00;99377.44;4883101;29;22405;-65
2023/05/03 02:34:51;;;;;;;8.97;5.30;;;;;;;7.16;100.00;99372.53;4894902;29;20288;-65
2023/05/03 02:37:21;;;;;;;7.47;4.83;;;;;;;7.07;100.00;99366.25;4882255;29;20247;-65
2023/05/03 02:39:48;;;;;;;9.80;4.57;;;;;;;6.97;100.00;99376.44;4884990;29;20232;-65
2023/05/03 02:42:16;;;;;;;6.27;4.60;;;;;;;6.83;100.00;99374.00;4900168;29;20299;-66
2023/05/03 02:44:45;;;;;;;5.50;4.40;;;;;;;6.74;100.00;99375.47;4899541;29;20426;-65
2023/05/03 02:47:11;;;;;;;8.17;4.17;;;;;;;6.60;100.00;99373.84;4883892;29;20710;-65
2023/05/03 02:49:42;;;;;;;5.27;4.20;;;;;;;6.47;100.00;99379.03;4882246;29;20302;-65
2023/05/03 02:52:09;;;;;;;5.50;4.00;;;;;;;6.39;100.00;99383.94;4895069;29;20239;-65
2023/05/03 02:54:36;;;;;;;8.50;4.37;;;;;;;6.28;100.00;99377.75;4884697;29;20332;-66
2023/05/03 02:57:09;;;;;;;6.83;3.87;;;;;;;6.28;100.00;99382.94;4898786;29;20243;-66
2023/05/03 02:59:36;;;;;;;6.13;3.73;;;;;;;6.22;100.00;99385.94;4893537;29;20244;-65
2023/05/03 03:02:02;;;;;;;7.63;3.80;;;;;;;6.14;100.00;99389.03;4882206;29;20233;-65
2023/05/03 03:04:30;;;;;;;13.47;3.80;;;;;;;6.17;100.00;99388.00;4897603;29;20269;-65
2023/05/03 03:06:58;;;;;;;6.87;4.43;;;;;;;6.09;100.00;99387.69;4898717;29;20236;-65
2023/05/03 03:09:25;;;;;;;9.50;5.50;;;;;;;6.02;100.00;99385.50;4898074;29;20247;-65
2023/05/03 03:11:52;;;;;;;10.23;6.13;;;;;;;5.95;100.00;99392.00;4900509;29;20237;-65
2023/05/03 03:14:19;;;;;;;10.53;5.10;;;;;;;5.91;100.00;99380.19;4892937;29;20239;-65
2023/05/03 03:16:46;;;;;;;10.00;5.93;;;;;;;5.86;100.00;99387.44;4880313;29;20233;-65
2023/05/03 03:19:13;;;;;;;8.37;5.43;;;;;;;5.82;100.00;99385.97;4878143;29;20832;-65
2023/05/03 03:21:41;;;;;;;7.80;5.10;;;;;;;5.78;100.00;99389.69;4896194;29;20324;-65
2023/05/03 03:24:10;;;;;;;10.50;5.23;;;;;;;5.68;100.00;99387.72;4893446;29;20252;-65
2023/05/03 03:26:40;;;;;;;10.33;5.50;;;;;;;5.59;100.00;99388.31;4888493;29;20244;-65
2023/05/03 03:29:08;;;;;;;10.53;5.87;;;;;;;5.58;100.00;99391.81;4882074;29;20267;-65
2023/05/03 03:31:42;;;;;;;12.27;6.47;;;;;;;5.58;100.00;99389.22;5094732;23;20236;-66
2023/05/03 03:34:08;;;;;;;12.20;6.43;;;;;;;5.51;100.00;99391.41;4904809;29;20254;-66
2023/05/03 03:36:40;;;;;;;10.50;5.53;;;;;;;5.48;100.00;99396.78;4925290;29;20708;-65
2023/05/03 03:39:07;;;;;;;11.57;6.33;;;;;;;5.46;100.00;99403.81;4919286;29;20591;-65
2023/05/03 03:41:45;;;;;;;9.30;5.70;;;;;;;5.40;100.00;99392.09;4908161;29;20726;-65
2023/05/03 03:44:11;;;;;;;12.63;5.97;;;;;;;5.38;100.00;99382.75;4890493;29;20311;-65
2023/05/03 03:46:40;;;;;;;9.67;5.70;;;;;;;5.40;100.00;99379.13;4895770;29;20921;-65
2023/05/03 03:49:07;;;;;;;9.03;5.20;;;;;;;5.36;100.00;99377.66;4890300;29;20255;-65
2023/05/03 03:51:40;;;;;;;12.63;5.53;;;;;;;5.41;100.00;99380.78;4914362;29;20247;-65
2023/05/03 03:54:07;;;;;;;6.13;4.30;;;;;;;5.36;100.00;99380.25;4887619;29;20232;-65
2023/05/03 03:56:46;;;;;;;8.63;4.73;;;;;;;5.44;100.00;99384.97;4886917;29;20236;-65
2023/05/03 03:59:12;;;;;;;10.37;4.50;;;;;;;5.45;100.00;99384.84;4890319;29;20270;-65
2023/05/03 04:01:40;;;;;;;6.80;4.33;;;;;;;5.43;100.00;99388.47;4887791;29;20241;-65
2023/05/03 04:04:08;;;;;;;7.83;4.53;;;;;;;5.37;100.00;99386.28;4904657;29;20811;-65
2023/05/03 04:06:42;;;;;;;7.63;4.83;;;;;;;5.37;100.00;99375.94;4902179;29;20727;-65
2023/05/03 04:09:12;;;;;;;7.40;4.77;;;;;;;5.36;100.00;99385.44;4890108;29;20672;-65
2023/05/03 04:11:40;;;;;;;7.10;4.73;;;;;;;5.40;100.00;99376.53;4892963;29;20236;-65
2023/05/03 04:14:08;;;;;;;8.03;4.60;;;;;;;5.47;100.00;99383.00;4889116;29;20245;-65
2023/05/03 04:16:41;;;;;;;8.43;4.47;;;;;;;5.53;100.00;99378.34;4908239;29;20228;-65
2023/05/03 04:19:07;;;;;;;9.47;4.60;;;;;;;5.58;100.00;99389.22;4882983;29;20652;-65
2023/05/03 04:21:41;;;;;;;6.70;4.13;;;;;;;5.61;100.00;99381.25;4885246;29;20234;-65
2023/05/03 04:24:08;;;;;;;7.67;4.17;;;;;;;5.63;100.00;99378.59;4909922;29;20584;-65
2023/05/03 04:26:40;;;;;;;7.17;4.60;;;;;;;5.66;100.00;99375.81;4892202;29;20334;-65
2023/05/03 04:29:14;;;;;;;6.40;4.40;;;;;;;5.69;100.00;99373.00;4884893;29;20282;-65
2023/05/03 04:31:43;;;;;;;8.27;4.17;;;;;;;5.74;100.00;99379.53;4892366;29;20810;-65
2023/05/03 04:34:13;;;;;;;7.37;4.50;;;;;;;5.73;100.00;99382.25;4889365;29;20300;-65
2023/05/03 04:36:41;;;;;;;6.10;4.20;;;;;;;5.78;100.00;99376.75;4890761;29;20272;-65
2023/05/03 04:39:11;;;;;;;7.60;4.90;;;;;;;5.83;100.00;99379.84;4904773;29;20245;-65
2023/05/03 04:41:40;;;;;;;42.20;20.70;;;;;;;5.81;100.00;99385.16;4894232;29;20235;-65
2023/05/03 04:44:08;;;;;;;16.40;10.37;;;;;;;5.81;100.00;99386.91;4888968;29;20235;-65
2023/05/03 04:46:42;;;;;;;14.30;9.23;;;;;;;5.84;100.00;99390.09;4909969;29;20688;-65
2023/05/03 04:49:09;;;;;;;27.00;15.70;;;;;;;5.87;100.00;99389.91;4904441;29;20246;-65
2023/05/03 04:51:39;;;;;;;19.20;10.53;;;;;;;5.93;100.00;99395.63;4908278;29;20319;-65
2023/05/03 04:54:06;;;;;;;11.60;7.37;;;;;;;5.93;100.00;99396.47;4882237;29;20239;-65
2023/05/03 04:56:58;;;;;;;12.93;6.70;;;;;;;5.95;100.00;99401.53;4907676;29;20812;-65
2023/05/03 04:59:25;;;;;;;9.90;5.87;;;;;;;5.94;100.00;99400.72;4889837;29;20251;-65
2023/05/03 05:01:53;;;;;;;9.97;6.00;;;;;;;5.95;100.00;99401.53;4891919;29;20810;-65
2023/05/03 05:04:20;;;;;;;9.77;6.10;;;;;;;5.94;100.00;99408.47;4889029;29;20487;-65
2023/05/03 05:06:50;;;;;;;13.50;6.70;;;;;;;5.90;100.00;99402.66;4909245;29;20269;-65
2023/05/03 05:09:21;;;;;;;10.20;6.40;;;;;;;5.90;100.00;99413.03;4889477;29;20215;-65
2023/05/03 05:11:49;;;;;;;9.47;6.67;;;;;;;5.93;100.00;99406.81;4909909;29;20795;-65
2023/05/03 05:14:16;;;;;;;9.57;6.20;;;;;;;5.93;100.00;99409.41;4888616;29;20247;-65
2023/05/03 05:16:43;;;;;;;10.97;7.13;;;;;;;5.93;100.00;99401.63;4891996;29;20247;-65
2023/05/03 05:19:12;;;;;;;11.47;6.80;;;;;;;5.97;100.00;99410.03;4887208;29;20268;-65
2023/05/03 05:21:40;;;;;;;12.57;10.00;;;;;;;5.98;100.00;99412.53;4889133;29;20646;-65
2023/05/03 05:24:08;;;;;;;15.13;11.30;;;;;;;6.02;100.00;99411.44;4882130;29;20248;-65
2023/05/03 05:26:41;;;;;;;17.50;11.80;;;;;;;6.04;100.00;99414.75;4907287;29;20235;-65
2023/05/03 05:29:09;;;;;;;14.77;9.67;;;;;;;6.05;100.00;99411.22;4906179;29;20240;-65
2023/05/03 05:31:39;;;;;;;16.53;11.07;;;;;;;6.09;100.00;99417.03;4884644;29;20245;-65
2023/05/03 05:34:08;;;;;;;12.70;9.17;;;;;;;6.07;100.00;99410.28;4887820;29;20873;-65
2023/05/03 05:36:41;;;;;;;13.23;8.60;;;;;;;6.08;100.00;99415.34;4908699;29;20310;-65
2023/05/03 05:39:09;;;;;;;9.53;6.60;;;;;;;6.13;100.00;99415.06;4887786;29;20236;-65
2023/05/03 05:41:40;;;;;;;10.27;7.00;;;;;;;6.17;100.00;99413.94;4886153;29;20239;-65
2023/05/03 05:44:07;;;;;;;10.70;6.17;;;;;;;6.18;100.00;99416.41;4873905;29;20677;-65
2023/05/03 05:46:41;;;;;;;8.63;6.00;;;;;;;6.23;100.00;99418.69;4911569;29;20638;-65
2023/05/03 05:49:08;;;;;;;10.17;6.07;;;;;;;6.29;100.00;99413.09;4888154;29;20243;-65
2023/05/03 05:51:40;;;;;;;13.67;6.33;;;;;;;6.31;100.00;99415.59;4909553;29;20236;-65
2023/05/03 05:54:08;;;;;;;12.67;7.37;;;;;;;6.40;100.00;99408.94;4902261;29;20236;-65
2023/05/03 05:56:39;;;;;;;15.77;7.87;;;;;;;6.50;100.00;99417.75;4906955;29;21107;-65
2023/05/03 05:59:06;;;;;;;13.77;7.83;;;;;;;6.53;100.00;99417.53;4887420;29;20236;-65
2023/05/03 06:01:59;;;;;;;14.50;8.43;;;;;;;6.62;100.00;99419.50;4905891;29;20446;-65
2023/05/03 06:04:27;;;;;;;16.57;9.07;;;;;;;6.71;100.00;99415.44;4902700;29;20236;-65
2023/05/03 06:06:55;;;;;;;13.57;8.13;;;;;;;6.78;100.00;99421.03;4911804;29;20229;-65
2023/05/03 06:09:23;;;;;;;12.30;7.77;;;;;;;6.86;100.00;99418.72;4904528;29;20249;-65
2023/05/03 06:11:51;;;;;;;13.00;7.20;;;;;;;6.93;100.00;99412.16;4890628;29;20793;-65
2023/05/03 06:14:19;;;;;;;10.80;6.60;;;;;;;7.05;100.00;99415.66;4887074;29;20225;-65
2023/05/03 06:16:46;;;;;;;12.03;7.50;;;;;;;7.11;100.00;99410.97;4891026;29;20280;-65
2023/05/03 06:19:13;;;;;;;10.27;7.27;;;;;;;7.18;100.00;99413.03;4888048;29;20233;-65
2023/05/03 06:21:40;;;;;;;15.53;7.70;;;;;;;7.31;100.00;99422.56;4907554;29;20251;-65
2023/05/03 06:24:07;;;;;;;13.57;7.13;;;;;;;7.42;100.00;99425.19;4890758;29;20239;-65
2023/05/03 06:26:41;;;;;;;13.07;7.27;;;;;;;7.49;100.00;99425.56;4890969;29;20235;-65
2023/05/03 06:29:08;;;;;;;15.47;7.53;;;;;;;7.61;100.00;99426.44;4882320;29;20240;-65
2023/05/03 06:31:41;;;;;;;11.87;7.77;;;;;;;7.78;100.00;99439.03;4886755;29;20233;-65
2023/05/03 06:34:08;;;;;;;12.47;7.60;;;;;;;7.99;100.00;99433.19;4887482;29;20751;-65
2023/05/03 06:36:42;;;;;;;12.80;7.97;;;;;;;8.19;100.00;99430.88;4889935;29;20791;-65
2023/05/03 06:39:14;;;;;;;12.77;7.40;;;;;;;8.44;100.00;99434.22;4887453;29;20585;-65
2023/05/03 06:41:42;;;;;;;11.90;7.20;;;;;;;8.54;100.00;99424.78;4910107;29;20247;-65
2023/05/03 06:44:08;;;;;;;13.33;7.37;;;;;;;8.72;100.00;99422.53;4904346;29;20237;-65
2023/05/03 06:46:40;;;;;;;13.43;7.83;;;;;;;8.87;100.00;99420.50;4905840;29;20245;-65
2023/05/03 06:49:08;;;;;;;13.07;7.33;;;;;;;9.04;100.00;99421.78;4882756;29;20378;-65
2023/05/03 06:51:40;;;;;;;14.17;7.83;;;;;;;9.15;100.00;99419.16;4907180;29;20240;-65
2023/05/03 06:54:08;;;;;;;13.60;7.97;;;;;;;9.18;100.00;99419.84;4879044;29;20235;-65
2023/05/03 06:56:39;;;;;;;9.83;6.97;;;;;;;9.24;100.00;99417.59;4907387;29;20642;-65
2023/05/03 06:59:07;;;;;;;13.77;8.60;;;;;;;9.19;100.00;99422.34;4887155;29;20667;-65
2023/05/03 07:01:39;;;;;;;15.23;7.43;;;;;;;9.41;100.00;99416.25;4907467;29;20252;-65
2023/05/03 07:04:06;;;;;;;11.87;7.93;;;;;;;9.40;99.50;99411.97;4903997;29;20250;-65
2023/05/03 07:06:36;;;;;;;13.47;7.40;;;;;;;9.49;99.49;99410.44;4907314;29;20245;-65
2023/05/03 07:09:03;;;;;;;14.87;8.10;;;;;;;9.55;97.99;99417.72;4907260;29;20258;-65
2023/05/03 07:11:30;;;;;;;13.13;8.10;;;;;;;9.68;98.98;99419.31;4908039;29;20250;-65
2023/05/03 07:13:56;;;;;;;14.27;8.30;;;;;;;9.82;97.92;99424.25;4910316;29;20243;-65
2023/05/03 07:16:24;;;;;;;13.03;7.80;;;;;;;9.88;96.74;99415.91;4907409;29;22413;-65
2023/05/03 07:18:51;;;;;;;15.87;8.60;;;;;;;10.00;97.78;99419.31;4910155;29;20237;-65
2023/05/03 07:21:17;;;;;;;13.47;8.53;;;;;;;10.10;95.72;99421.97;4885248;29;20246;-65
2023/05/03 07:23:44;;;;;;;14.20;8.73;;;;;;;10.09;95.70;99428.13;4908845;29;20258;-65
2023/05/03 07:26:11;;;;;;;14.63;8.20;;;;;;;10.19;95.14;99428.19;4906478;29;20693;-65
2023/05/03 07:28:37;;;;;;;13.33;8.80;;;;;;;10.31;94.52;99423.72;4910557;29;20297;-65
2023/05/03 07:31:04;;;;;;;18.70;9.40;;;;;;;10.37;93.31;99433.66;4907043;29;20316;-65
2023/05/03 07:33:36;;;;;;;19.37;9.10;;;;;;;10.28;94.63;99427.41;4908679;29;20240;-65
2023/05/03 07:36:02;;;;;;;15.07;8.40;;;;;;;10.45;95.11;99427.81;4909909;29;20238;-65
2023/05/03 07:38:29;;;;;;;14.97;8.57;;;;;;;10.58;93.32;99440.66;4906982;29;20239;-65
2023/05/03 07:40:56;;;;;;;13.63;8.60;;;;;;;10.57;93.47;99429.38;4889182;29;20239;-65
2023/05/03 07:43:23;;;;;;;16.20;9.40;;;;;;;10.69;94.97;99424.88;4905547;29;20242;-65
2023/05/03 07:45:49;;;;;;;16.23;8.70;;;;;;;10.77;93.20;99427.66;4909748;29;20317;-65
2023/05/03 07:48:16;;;;;;;15.37;8.93;;;;;;;10.78;94.26;99426.69;4905444;29;20249;-65
2023/05/03 07:50:44;;;;;;;15.20;8.60;;;;;;;10.90;92.55;99422.22;4909783;29;20246;-65
2023/05/03 07:53:11;;;;;;;17.63;9.00;;;;;;;10.92;92.59;99428.13;4905145;29;20239;-65
2023/05/03 07:55:38;;;;;;;16.67;8.80;;;;;;;10.97;92.46;99419.88;4909546;29;20328;-65
2023/05/03 07:58:08;;;;;;;15.83;8.73;;;;;;;11.07;91.38;99419.91;4904148;29;20262;-65
2023/05/03 08:00:35;;;;;;;19.17;9.27;;;;;;;11.16;92.79;99416.47;4909216;29;20229;-65
2023/05/03 08:03:05;;;;;;;15.73;8.50;;;;;;;11.27;90.89;99415.53;4905166;29;20237;-65
2023/05/03 08:05:34;;;;;;;15.17;8.87;;;;;;;11.40;90.80;99412.66;4909384;29;20245;-65
2023/05/03 08:08:04;;;;;;;13.83;8.17;;;;;;;11.56;90.00;99421.75;4909162;29;20335;-65
2023/05/03 08:10:30;;;;;;;13.83;8.27;;;;;;;11.59;87.74;99418.84;4907095;29;20387;-65
2023/05/03 08:12:57;;;;;;;13.53;8.97;;;;;;;11.51;89.13;99425.59;4909344;29;20329;-65
2023/05/03 08:15:24;;;;;;;12.80;8.40;;;;;;;11.62;89.29;99434.25;4905831;29;20595;-65
2023/05/03 08:17:50;;;;;;;15.17;8.57;;;;;;;11.70;87.89;99437.03;4909589;29;20242;-65
2023/05/03 08:20:17;;;;;;;12.80;8.27;;;;;;;11.86;88.03;99438.25;4906091;29;20298;-65
2023/05/03 08:22:44;;;;;;;14.07;8.43;;;;;;;11.77;89.35;99443.34;4907663;29;20725;-65
2023/05/03 08:25:12;;;;;;;12.97;8.57;;;;;;;11.80;88.08;99445.69;4905666;29;20226;-65
2023/05/03 08:27:41;;;;;;;17.00;8.47;;;;;;;11.82;88.82;99430.69;4909655;29;20239;-65
2023/05/03 08:30:09;;;;;;;16.47;8.83;;;;;;;11.95;87.72;99440.84;4906177;29;20238;-65
2023/05/03 08:32:36;;;;;;;15.20;9.70;;;;;;;12.04;89.33;99441.84;4908836;29;20624;-65
2023/05/03 08:35:05;;;;;;;12.57;8.57;;;;;;;12.17;87.18;99440.72;4908585;29;20259;-65
2023/05/03 08:37:38;;;;;;;13.97;7.73;;;;;;;12.23;87.89;99438.34;4905964;29;20249;-65
2023/05/03 08:40:06;;;;;;;15.17;9.30;;;;;;;12.18;87.46;99440.56;4906858;29;20270;-65
2023/05/03 08:42:34;;;;;;;14.23;9.77;;;;;;;12.23;85.86;99445.38;4909066;29;20276;-65
2023/05/03 08:45:01;;;;;;;13.03;8.63;;;;;;;12.16;87.18;99447.75;4907078;29;20699;-65
2023/05/03 08:47:32;;;;;;;15.07;9.27;;;;;;;12.10;87.27;99435.22;4894874;29;20238;-65
2023/05/03 08:49:59;;;;;;;14.07;8.60;;;;;;;12.43;87.02;99440.09;4908496;29;20243;-65
2023/05/03 08:52:27;;;;;;;16.43;9.10;;;;;;;12.49;85.59;99440.34;4905043;29;20231;-65
2023/05/03 08:54:54;;;;;;;14.83;9.27;;;;;;;12.49;87.37;99440.34;4908802;29;20262;-65
2023/05/03 08:57:24;;;;;;;13.50;8.80;;;;;;;12.58;87.34;99443.09;4905614;29;20245;-65
2023/05/03 08:59:57;;;;;;;13.37;8.83;;;;;;;12.81;85.62;99443.53;4909286;29;20587;-65
2023/05/03 09:02:24;;;;;;;15.30;9.47;;;;;;;12.70;85.43;99447.19;4882829;29;20251;-65
2023/05/03 09:04:50;;;;;;;15.80;9.77;;;;;;;12.85;86.70;99434.41;4900723;29;20224;-66
2023/05/03 09:07:18;;;;;;;14.73;10.43;;;;;;;12.77;86.28;99432.50;4906388;29;20236;-65
2023/05/03 09:09:45;;;;;;;16.67;9.57;;;;;;;12.88;85.00;99423.66;4908857;29;20730;-65
2023/05/03 09:12:12;;;;;;;15.03;9.50;;;;;;;12.95;85.10;99429.94;4888851;29;20330;-66
2023/05/03 09:14:43;;;;;;;15.53;9.07;;;;;;;13.15;84.80;99424.59;4907567;29;20258;-66
2023/05/03 09:17:16;;;;;;;15.13;8.77;;;;;;;13.20;84.51;99414.50;4904950;29;20335;-66
2023/05/03 09:19:53;;;;;;;16.40;8.50;;;;;;;13.33;84.92;99422.00;4907558;29;20230;-65
2023/05/03 09:22:20;;;;;;;12.30;8.77;;;;;;;13.32;84.96;99417.72;4903521;29;20283;-64
2023/05/03 09:24:53;;;;;;;13.47;8.50;;;;;;;13.47;84.68;99414.59;4907080;29;20259;-64
2023/05/03 09:27:21;;;;;;;11.67;8.10;;;;;;;13.69;84.88;99413.31;4896217;29;20231;-64
2023/05/03 09:29:48;;;;;;;11.77;7.40;;;;;;;13.65;83.90;99411.97;4908406;29;20237;-65
2023/05/03 09:32:17;;;;;;;13.67;7.80;;;;;;;13.58;81.83;99411.75;4902790;29;20227;-65
2023/05/03 09:34:44;;;;;;;11.13;7.83;;;;;;;13.74;82.94;99411.06;4907734;29;20939;-65
2023/05/03 09:37:12;;;;;;;14.57;7.43;;;;;;;13.91;83.02;99416.44;4888026;29;20271;-65
2023/05/03 09:39:40;;;;;;;13.57;7.23;;;;;;;14.10;81.12;99413.63;4907685;29;20329;-65
2023/05/03 09:42:11;;;;;;;13.07;8.27;;;;;;;14.00;80.69;99415.53;4905472;29;20303;-66
2023/05/03 09:44:43;;;;;;;11.43;8.00;;;;;;;14.23;79.16;99422.88;4907860;29;20763;-66
2023/05/03 09:47:10;;;;;;;11.67;8.30;;;;;;;14.40;80.82;99418.53;4903330;29;20228;-66
2023/05/03 09:49:39;;;;;;;14.73;8.23;;;;;;;14.27;79.70;99405.84;4891707;29;20246;-66
2023/05/03 09:52:07;;;;;;;11.70;8.23;;;;;;;14.23;78.97;99410.56;4904437;29;20240;-66
2023/05/03 09:54:35;;;;;;;14.50;8.43;;;;;;;14.00;80.76;99405.00;4888599;29;20223;-63
2023/05/03 09:57:03;;;;;;;13.00;7.50;;;;;;;14.09;80.19;99406.72;4898064;29;20703;-64
2023/05/03 09:59:34;;;;;;;17.17;8.40;;;;;;;14.19;79.36;99406.59;4901719;29;20263;-65
2023/05/03 10:02:02;;;;;;;13.80;7.73;;;;;;;14.42;79.62;99404.25;4904727;29;20247;-65
2023/05/03 10:04:38;;;;;;;11.13;7.27;;;;;;;14.73;77.19;99405.59;4901323;29;20319;-65
2023/05/03 10:07:09;;;;;;;12.17;7.33;;;;;;;15.03;75.44;99408.63;4901328;29;20349;-65
2023/05/03 10:09:39;;;;;;;11.03;7.53;;;;;;;14.93;73.44;99407.94;4905932;29;21216;-65
2023/05/03 10:12:08;;;;;;;11.00;6.80;;;;;;;14.91;73.11;99401.03;4902471;29;20333;-65
2023/05/03 10:14:35;;;;;;;10.50;6.43;;;;;;;15.00;73.56;99393.16;4906907;29;20585;-65
2023/05/03 10:17:07;;;;;;;9.93;5.87;;;;;;;15.27;73.67;99381.56;4907335;29;20274;-65
2023/05/03 10:19:38;;;;;;;16.53;8.63;;;;;;;15.44;74.33;99381.56;4905015;29;20240;-66
2023/05/03 10:22:07;;;;;;;8.00;6.57;;;;;;;15.57;70.99;99381.91;4903973;29;20237;-65
2023/05/03 10:24:35;;;;;;;7.87;5.40;;;;;;;15.79;73.18;99376.97;4906710;29;20246;-65
2023/05/03 10:27:02;;;;;;;10.70;6.23;;;;;;;16.00;71.35;99375.66;4907305;29;20575;-65
2023/05/03 10:29:52;;;;;;;14.30;9.50;;;;;;;16.30;69.68;99374.06;4901196;29;20238;-66
2023/05/03 10:32:32;;;;;;;8.60;6.07;;;;;;;16.55;68.85;99363.44;4903064;29;20257;-66
2023/05/03 10:35:04;;;;;;;8.00;6.60;;;;;;;16.67;67.17;99356.81;4898747;29;21190;-65
2023/05/03 10:37:33;;;;;;;10.27;5.97;;;;;;;16.71;64.73;99359.09;4905916;29;20237;-65
2023/05/03 10:40:06;;;;;;;6.67;5.30;;;;;;;16.70;64.58;99357.47;4907167;29;20669;-66
2023/05/03 10:42:33;;;;;;;9.63;5.40;;;;;;;16.85;66.92;99352.25;4904713;29;20698;-65
2023/05/03 10:45:02;;;;;;;9.23;5.40;;;;;;;17.04;65.73;99349.22;4907735;29;20233;-65
2023/05/03 10:47:29;;;;;;;6.83;5.60;;;;;;;16.92;62.07;99340.84;4907369;29;20288;-66
2023/05/03 10:50:24;;;;;;;6.30;5.40;;;;;;;16.94;62.30;99327.47;4909824;29;20245;-66
2023/05/03 10:52:52;;;;;;;7.20;5.00;;;;;;;16.93;59.99;99339.03;4907453;29;20246;-65
2023/05/03 10:55:20;;;;;;;6.23;4.80;;;;;;;17.16;60.85;99336.41;4881700;29;20314;-66
2023/05/03 10:57:49;;;;;;;6.33;4.00;;;;;;;17.33;59.31;99331.84;4873484;29;20236;-66
2023/05/03 11:00:20;;;;;;;7.00;4.20;;;;;;;17.18;58.74;99331.78;4896057;29;20345;-66
2023/05/03 11:03:07;;;;;;;5.93;3.90;;;;;;;16.89;59.84;99330.66;4908007;29;20247;-66
2023/05/03 11:05:34;;;;;;;6.97;4.80;;;;;;;16.78;59.84;99333.69;4907071;29;20260;-66
2023/05/03 11:08:13;;;;;;;6.00;4.27;;;;;;;17.01;59.41;99333.72;4909387;29;20330;-65
2023/05/03 11:10:40;;;;;;;8.70;4.77;;;;;;;16.88;59.46;99317.63;4907678;29;20339;-66
2023/05/03 11:13:07;;;;;;;5.90;4.47;;;;;;;17.09;60.48;99312.56;4904330;29;20352;-66
2023/05/03 11:15:34;;;;;;;7.43;4.57;;;;;;;17.35;59.03;99315.84;4908257;29;20558;-66
2023/05/03 11:18:01;;;;;;;7.33;5.20;;;;;;;17.11;58.24;99313.22;4910177;29;20314;-66
2023/05/03 11:20:28;;;;;;;6.17;4.43;;;;;;;17.24;59.89;99311.81;4905554;29;20301;-66
2023/05/03 11:22:56;;;;;;;5.83;3.90;;;;;;;17.23;59.51;99316.25;4891778;29;20244;-65
2023/05/03 11:25:24;;;;;;;5.77;4.00;;;;;;;17.21;59.73;99314.81;4905800;29;20235;-66
2023/05/03 11:27:50;;;;;;;8.03;4.40;;;;;;;17.35;60.54;99321.09;4908527;29;20230;-66
2023/05/03 11:30:17;;;;;;;8.80;5.60;;;;;;;17.46;59.77;99307.50;4905932;29;20860;-66
2023/05/03 11:32:44;;;;;;;6.07;4.73;;;;;;;17.44;60.58;99316.59;4910286;29;20301;-66
2023/05/03 11:35:12;;;;;;;10.87;6.10;;;;;;;17.29;61.91;99298.06;4906207;29;20235;-66
2023/05/03 11:37:40;;;;;;;8.13;4.77;;;;;;;17.47;60.73;99301.22;4909046;29;20321;-65